sensor_id;sensor_type;location;lat;lon;timestamp;P1;durP1;ratioP1;P2;durP2;ratioP2
438;SDS011;206;48.782;9.252;2023-02-24T00:01:22;19.07;;;16.63;;
438;SDS011;206;48.782;9.252;2023-02-24T00:03:58;24.20;;;17.13;;
438;SDS011;206;48.782;9.252;2023-02-24T00:06:25;21.50;;;17.47;;
438;SDS011;206;48.782;9.252;2023-02-24T00:09:00;24.37;;;17.90;;
438;SDS011;206;48.782;9.252;2023-02-24T00:11:26;22.90;;;16.43;;
438;SDS011;206;48.782;9.252;2023-02-24T00:13:52;25.97;;;17.27;;
438;SDS011;206;48.782;9.252;2023-02-24T00:16:17;22.00;;;18.13;;
438;SDS011;206;48.782;9.252;2023-02-24T00:18:43;24.30;;;19.20;;
438;SDS011;206;48.782;9.252;2023-02-24T00:21:11;28.20;;;19.97;;
438;SDS011;206;48.782;9.252;2023-02-24T00:23:39;23.90;;;18.73;;
438;SDS011;206;48.782;9.252;2023-02-24T00:26:07;28.23;;;18.30;;
438;SDS011;206;48.782;9.252;2023-02-24T00:28:34;26.67;;;18.87;;
438;SDS011;206;48.782;9.252;2023-02-24T00:31:04;28.83;;;18.10;;
438;SDS011;206;48.782;9.252;2023-02-24T00:33:32;26.97;;;18.80;;
438;SDS011;206;48.782;9.252;2023-02-24T00:36:05;21.40;;;17.70;;
438;SDS011;206;48.782;9.252;2023-02-24T00:38:32;21.57;;;18.33;;
438;SDS011;206;48.782;9.252;2023-02-24T00:41:00;25.20;;;19.00;;
438;SDS011;206;48.782;9.252;2023-02-24T00:43:32;23.97;;;20.73;;
438;SDS011;206;48.782;9.252;2023-02-24T00:46:01;25.07;;;18.80;;
438;SDS011;206;48.782;9.252;2023-02-24T00:48:28;29.50;;;19.50;;
438;SDS011;206;48.782;9.252;2023-02-24T00:50:53;29.07;;;19.37;;
438;SDS011;206;48.782;9.252;2023-02-24T00:53:19;24.47;;;18.20;;
438;SDS011;206;48.782;9.252;2023-02-24T00:55:44;28.83;;;20.20;;
438;SDS011;206;48.782;9.252;2023-02-24T00:58:10;27.27;;;20.10;;
438;SDS011;206;48.782;9.252;2023-02-24T01:00:35;29.83;;;21.37;;
438;SDS011;206;48.782;9.252;2023-02-24T01:03:02;28.60;;;19.10;;
438;SDS011;206;48.782;9.252;2023-02-24T01:05:28;25.20;;;20.13;;
438;SDS011;206;48.782;9.252;2023-02-24T01:07:53;23.10;;;18.83;;
438;SDS011;206;48.782;9.252;2023-02-24T01:10:19;25.73;;;18.60;;
438;SDS011;206;48.782;9.252;2023-02-24T01:12:47;26.20;;;18.57;;
438;SDS011;206;48.782;9.252;2023-02-24T01:15:14;25.00;;;18.57;;
438;SDS011;206;48.782;9.252;2023-02-24T01:17:41;27.60;;;19.23;;
438;SDS011;206;48.782;9.252;2023-02-24T01:20:07;29.93;;;19.80;;
438;SDS011;206;48.782;9.252;2023-02-24T01:22:40;24.30;;;19.50;;
438;SDS011;206;48.782;9.252;2023-02-24T01:25:17;28.87;;;19.37;;
438;SDS011;206;48.782;9.252;2023-02-24T01:27:46;22.30;;;20.57;;
438;SDS011;206;48.782;9.252;2023-02-24T01:30:12;25.30;;;18.33;;
438;SDS011;206;48.782;9.252;2023-02-24T01:32:40;27.70;;;19.73;;
438;SDS011;206;48.782;9.252;2023-02-24T01:35:07;22.60;;;18.63;;
438;SDS011;206;48.782;9.252;2023-02-24T01:37:35;29.87;;;20.03;;
438;SDS011;206;48.782;9.252;2023-02-24T01:40:01;27.60;;;20.17;;
438;SDS011;206;48.782;9.252;2023-02-24T01:42:42;26.20;;;18.80;;
438;SDS011;206;48.782;9.252;2023-02-24T01:45:13;28.20;;;20.90;;
438;SDS011;206;48.782;9.252;2023-02-24T01:47:40;28.27;;;20.67;;
438;SDS011;206;48.782;9.252;2023-02-24T01:50:08;27.80;;;20.43;;
438;SDS011;206;48.782;9.252;2023-02-24T01:52:35;27.53;;;19.47;;
438;SDS011;206;48.782;9.252;2023-02-24T01:55:10;25.90;;;20.03;;
438;SDS011;206;48.782;9.252;2023-02-24T01:57:40;25.93;;;19.43;;
438;SDS011;206;48.782;9.252;2023-02-24T02:00:09;29.63;;;20.80;;
438;SDS011;206;48.782;9.252;2023-02-24T02:02:37;21.97;;;17.87;;
438;SDS011;206;48.782;9.252;2023-02-24T02:05:06;22.10;;;18.23;;
438;SDS011;206;48.782;9.252;2023-02-24T02:07:33;24.33;;;19.30;;
438;SDS011;206;48.782;9.252;2023-02-24T02:10:03;22.77;;;18.40;;
438;SDS011;206;48.782;9.252;2023-02-24T02:12:33;22.40;;;16.87;;
438;SDS011;206;48.782;9.252;2023-02-24T02:15:02;26.83;;;19.27;;
438;SDS011;206;48.782;9.252;2023-02-24T02:17:38;27.23;;;19.50;;
438;SDS011;206;48.782;9.252;2023-02-24T02:36:47;26.80;;;19.53;;
438;SDS011;206;48.782;9.252;2023-02-24T02:39:32;25.53;;;18.93;;
438;SDS011;206;48.782;9.252;2023-02-24T02:47:48;24.60;;;19.20;;
438;SDS011;206;48.782;9.252;2023-02-24T02:50:30;28.87;;;19.47;;
438;SDS011;206;48.782;9.252;2023-02-24T02:52:58;24.23;;;18.13;;
438;SDS011;206;48.782;9.252;2023-02-24T02:55:38;25.63;;;18.57;;
438;SDS011;206;48.782;9.252;2023-02-24T02:58:14;20.30;;;17.50;;
438;SDS011;206;48.782;9.252;2023-02-24T03:00:45;24.63;;;18.23;;
438;SDS011;206;48.782;9.252;2023-02-24T03:03:22;24.97;;;17.27;;
438;SDS011;206;48.782;9.252;2023-02-24T03:05:53;26.70;;;18.87;;
438;SDS011;206;48.782;9.252;2023-02-24T03:08:34;24.40;;;18.47;;
438;SDS011;206;48.782;9.252;2023-02-24T03:11:04;25.93;;;19.87;;
438;SDS011;206;48.782;9.252;2023-02-24T03:13:35;19.70;;;17.17;;
438;SDS011;206;48.782;9.252;2023-02-24T03:16:05;23.47;;;17.90;;
438;SDS011;206;48.782;9.252;2023-02-24T03:18:34;27.23;;;18.80;;
438;SDS011;206;48.782;9.252;2023-02-24T03:21:07;23.33;;;19.80;;
438;SDS011;206;48.782;9.252;2023-02-24T03:23:42;22.77;;;20.20;;
438;SDS011;206;48.782;9.252;2023-02-24T03:26:26;21.50;;;18.03;;
438;SDS011;206;48.782;9.252;2023-02-24T03:29:06;23.57;;;18.70;;
438;SDS011;206;48.782;9.252;2023-02-24T03:34:27;27.00;;;19.60;;
438;SDS011;206;48.782;9.252;2023-02-24T03:37:01;26.00;;;20.33;;
438;SDS011;206;48.782;9.252;2023-02-24T03:39:27;23.10;;;17.90;;
438;SDS011;206;48.782;9.252;2023-02-24T03:41:57;30.53;;;21.30;;
438;SDS011;206;48.782;9.252;2023-02-24T03:44:28;23.33;;;19.00;;
438;SDS011;206;48.782;9.252;2023-02-24T03:46:54;26.87;;;19.03;;
438;SDS011;206;48.782;9.252;2023-02-24T03:49:20;30.47;;;21.67;;
438;SDS011;206;48.782;9.252;2023-02-24T03:51:52;28.50;;;19.60;;
438;SDS011;206;48.782;9.252;2023-02-24T04:11:46;24.77;;;21.47;;
438;SDS011;206;48.782;9.252;2023-02-24T04:14:20;27.10;;;22.03;;
438;SDS011;206;48.782;9.252;2023-02-24T04:16:55;24.67;;;20.50;;
438;SDS011;206;48.782;9.252;2023-02-24T04:19:44;21.67;;;18.37;;
438;SDS011;206;48.782;9.252;2023-02-24T04:22:13;26.73;;;20.07;;
438;SDS011;206;48.782;9.252;2023-02-24T04:24:42;28.03;;;18.17;;
438;SDS011;206;48.782;9.252;2023-02-24T04:27:10;28.80;;;19.57;;
438;SDS011;206;48.782;9.252;2023-02-24T04:29:39;28.80;;;21.83;;
438;SDS011;206;48.782;9.252;2023-02-24T04:32:11;32.53;;;22.50;;
438;SDS011;206;48.782;9.252;2023-02-24T04:34:40;31.00;;;23.67;;
438;SDS011;206;48.782;9.252;2023-02-24T04:37:06;36.90;;;22.33;;
438;SDS011;206;48.782;9.252;2023-02-24T04:39:32;35.30;;;24.97;;
438;SDS011;206;48.782;9.252;2023-02-24T04:42:02;35.17;;;23.87;;
438;SDS011;206;48.782;9.252;2023-02-24T04:44:29;35.93;;;25.40;;
438;SDS011;206;48.782;9.252;2023-02-24T04:46:57;40.87;;;26.10;;
438;SDS011;206;48.782;9.252;2023-02-24T04:49:23;40.77;;;24.57;;
438;SDS011;206;48.782;9.252;2023-02-24T04:51:50;37.77;;;26.47;;
438;SDS011;206;48.782;9.252;2023-02-24T04:54:16;35.23;;;25.80;;
438;SDS011;206;48.782;9.252;2023-02-24T04:56:43;36.93;;;24.37;;
438;SDS011;206;48.782;9.252;2023-02-24T04:59:14;37.47;;;27.20;;
438;SDS011;206;48.782;9.252;2023-02-24T05:01:41;39.30;;;25.37;;
438;SDS011;206;48.782;9.252;2023-02-24T05:04:08;36.00;;;22.90;;
438;SDS011;206;48.782;9.252;2023-02-24T05:06:36;41.50;;;25.17;;
438;SDS011;206;48.782;9.252;2023-02-24T05:09:08;35.63;;;24.40;;
438;SDS011;206;48.782;9.252;2023-02-24T05:11:44;40.40;;;25.67;;
438;SDS011;206;48.782;9.252;2023-02-24T05:14:13;36.47;;;25.33;;
438;SDS011;206;48.782;9.252;2023-02-24T05:16:40;35.70;;;24.77;;
438;SDS011;206;48.782;9.252;2023-02-24T05:19:07;38.60;;;24.17;;
438;SDS011;206;48.782;9.252;2023-02-24T05:21:53;36.23;;;25.60;;
438;SDS011;206;48.782;9.252;2023-02-24T05:24:22;40.60;;;26.90;;
438;SDS011;206;48.782;9.252;2023-02-24T05:26:49;40.57;;;27.40;;
438;SDS011;206;48.782;9.252;2023-02-24T05:29:22;40.13;;;27.27;;
438;SDS011;206;48.782;9.252;2023-02-24T05:31:52;37.27;;;27.37;;
438;SDS011;206;48.782;9.252;2023-02-24T05:34:19;40.67;;;26.50;;
438;SDS011;206;48.782;9.252;2023-02-24T05:36:45;42.27;;;27.73;;
438;SDS011;206;48.782;9.252;2023-02-24T05:39:13;43.10;;;25.53;;
438;SDS011;206;48.782;9.252;2023-02-24T05:41:43;43.60;;;27.10;;
438;SDS011;206;48.782;9.252;2023-02-24T05:44:13;39.93;;;25.47;;
438;SDS011;206;48.782;9.252;2023-02-24T05:46:47;34.00;;;25.43;;
438;SDS011;206;48.782;9.252;2023-02-24T05:49:18;46.80;;;26.63;;
438;SDS011;206;48.782;9.252;2023-02-24T05:51:47;46.10;;;28.40;;
438;SDS011;206;48.782;9.252;2023-02-24T05:54:23;40.93;;;25.97;;
438;SDS011;206;48.782;9.252;2023-02-24T05:56:54;42.43;;;26.70;;
438;SDS011;206;48.782;9.252;2023-02-24T05:59:24;44.63;;;24.90;;
438;SDS011;206;48.782;9.252;2023-02-24T06:01:56;43.23;;;27.57;;
438;SDS011;206;48.782;9.252;2023-02-24T06:04:34;41.60;;;26.73;;
438;SDS011;206;48.782;9.252;2023-02-24T06:07:05;44.63;;;26.27;;
438;SDS011;206;48.782;9.252;2023-02-24T06:09:48;49.70;;;26.67;;
438;SDS011;206;48.782;9.252;2023-02-24T06:12:18;45.20;;;28.47;;
438;SDS011;206;48.782;9.252;2023-02-24T06:14:45;49.50;;;28.40;;
438;SDS011;206;48.782;9.252;2023-02-24T06:17:12;37.40;;;25.30;;
438;SDS011;206;48.782;9.252;2023-02-24T06:19:40;38.43;;;27.47;;
438;SDS011;206;48.782;9.252;2023-02-24T06:22:13;42.30;;;28.93;;
438;SDS011;206;48.782;9.252;2023-02-24T06:24:40;44.50;;;27.87;;
438;SDS011;206;48.782;9.252;2023-02-24T06:27:09;45.20;;;27.57;;
438;SDS011;206;48.782;9.252;2023-02-24T06:29:41;45.80;;;29.83;;
438;SDS011;206;48.782;9.252;2023-02-24T06:32:07;45.67;;;27.37;;
438;SDS011;206;48.782;9.252;2023-02-24T06:34:36;41.90;;;26.50;;
438;SDS011;206;48.782;9.252;2023-02-24T06:37:03;45.70;;;27.77;;
438;SDS011;206;48.782;9.252;2023-02-24T06:39:31;45.87;;;29.67;;
438;SDS011;206;48.782;9.252;2023-02-24T06:41:58;41.13;;;25.90;;
438;SDS011;206;48.782;9.252;2023-02-24T06:44:32;41.33;;;28.40;;
438;SDS011;206;48.782;9.252;2023-02-24T06:47:05;36.77;;;25.47;;
438;SDS011;206;48.782;9.252;2023-02-24T06:49:32;49.87;;;27.93;;
438;SDS011;206;48.782;9.252;2023-02-24T06:51:58;41.20;;;25.80;;
438;SDS011;206;48.782;9.252;2023-02-24T06:54:24;49.23;;;27.70;;
438;SDS011;206;48.782;9.252;2023-02-24T06:56:52;47.50;;;26.77;;
438;SDS011;206;48.782;9.252;2023-02-24T06:59:18;45.10;;;29.73;;
438;SDS011;206;48.782;9.252;2023-02-24T07:01:52;41.23;;;28.30;;
438;SDS011;206;48.782;9.252;2023-02-24T07:04:19;42.47;;;24.77;;
438;SDS011;206;48.782;9.252;2023-02-24T07:06:49;38.00;;;26.20;;
438;SDS011;206;48.782;9.252;2023-02-24T07:09:19;41.00;;;27.80;;
438;SDS011;206;48.782;9.252;2023-02-24T07:11:46;40.07;;;26.10;;
438;SDS011;206;48.782;9.252;2023-02-24T07:14:16;39.47;;;27.83;;
438;SDS011;206;48.782;9.252;2023-02-24T07:16:43;49.00;;;25.87;;
438;SDS011;206;48.782;9.252;2023-02-24T07:19:13;38.03;;;26.33;;
438;SDS011;206;48.782;9.252;2023-02-24T07:21:43;52.80;;;28.83;;
438;SDS011;206;48.782;9.252;2023-02-24T07:24:14;41.93;;;27.10;;
438;SDS011;206;48.782;9.252;2023-02-24T07:26:57;47.07;;;29.03;;
438;SDS011;206;48.782;9.252;2023-02-24T07:29:25;44.60;;;29.37;;
438;SDS011;206;48.782;9.252;2023-02-24T07:31:52;41.03;;;26.00;;
438;SDS011;206;48.782;9.252;2023-02-24T07:34:22;56.97;;;30.13;;
438;SDS011;206;48.782;9.252;2023-02-24T07:36:50;41.50;;;25.87;;
438;SDS011;206;48.782;9.252;2023-02-24T07:39:16;41.07;;;25.70;;
438;SDS011;206;48.782;9.252;2023-02-24T07:41:43;53.30;;;28.70;;
438;SDS011;206;48.782;9.252;2023-02-24T07:44:10;41.43;;;28.80;;
438;SDS011;206;48.782;9.252;2023-02-24T07:46:37;46.60;;;28.83;;
438;SDS011;206;48.782;9.252;2023-02-24T07:49:04;44.23;;;27.53;;
438;SDS011;206;48.782;9.252;2023-02-24T07:51:33;53.20;;;29.57;;
438;SDS011;206;48.782;9.252;2023-02-24T07:53:59;52.30;;;32.20;;
438;SDS011;206;48.782;9.252;2023-02-24T07:56:27;46.17;;;30.80;;
438;SDS011;206;48.782;9.252;2023-02-24T07:58:59;46.43;;;29.70;;
438;SDS011;206;48.782;9.252;2023-02-24T08:01:26;52.40;;;32.27;;
438;SDS011;206;48.782;9.252;2023-02-24T08:04:03;59.30;;;31.57;;
438;SDS011;206;48.782;9.252;2023-02-24T08:06:32;56.10;;;30.47;;
438;SDS011;206;48.782;9.252;2023-02-24T08:09:06;47.10;;;30.87;;
438;SDS011;206;48.782;9.252;2023-02-24T08:11:45;49.30;;;31.60;;
438;SDS011;206;48.782;9.252;2023-02-24T08:14:16;53.03;;;30.73;;
438;SDS011;206;48.782;9.252;2023-02-24T08:16:56;53.93;;;31.80;;
438;SDS011;206;48.782;9.252;2023-02-24T08:19:26;51.63;;;30.23;;
438;SDS011;206;48.782;9.252;2023-02-24T08:22:04;57.00;;;33.57;;
438;SDS011;206;48.782;9.252;2023-02-24T08:24:55;55.67;;;34.03;;
438;SDS011;206;48.782;9.252;2023-02-24T08:27:29;55.63;;;31.17;;
438;SDS011;206;48.782;9.252;2023-02-24T08:29:56;48.30;;;30.80;;
438;SDS011;206;48.782;9.252;2023-02-24T08:35:23;52.10;;;32.40;;
438;SDS011;206;48.782;9.252;2023-02-24T08:37:56;54.17;;;32.60;;
438;SDS011;206;48.782;9.252;2023-02-24T08:40:32;55.20;;;30.87;;
438;SDS011;206;48.782;9.252;2023-02-24T08:48:14;50.13;;;29.23;;
438;SDS011;206;48.782;9.252;2023-02-24T08:50:51;49.17;;;31.20;;
438;SDS011;206;48.782;9.252;2023-02-24T08:53:19;54.90;;;34.97;;
438;SDS011;206;48.782;9.252;2023-02-24T08:55:45;51.47;;;30.63;;
438;SDS011;206;48.782;9.252;2023-02-24T08:58:15;45.17;;;28.87;;
438;SDS011;206;48.782;9.252;2023-02-24T09:00:43;58.53;;;32.43;;
438;SDS011;206;48.782;9.252;2023-02-24T09:03:18;44.93;;;29.73;;
438;SDS011;206;48.782;9.252;2023-02-24T09:08:33;43.87;;;30.83;;
438;SDS011;206;48.782;9.252;2023-02-24T09:11:03;50.13;;;29.00;;
438;SDS011;206;48.782;9.252;2023-02-24T09:13:35;47.80;;;30.47;;
438;SDS011;206;48.782;9.252;2023-02-24T09:16:07;47.30;;;29.33;;
438;SDS011;206;48.782;9.252;2023-02-24T09:18:40;48.50;;;28.60;;
438;SDS011;206;48.782;9.252;2023-02-24T09:21:15;47.50;;;30.77;;
438;SDS011;206;48.782;9.252;2023-02-24T09:23:59;45.10;;;27.47;;
438;SDS011;206;48.782;9.252;2023-02-24T09:26:31;42.60;;;28.80;;
438;SDS011;206;48.782;9.252;2023-02-24T09:29:07;51.53;;;31.77;;
438;SDS011;206;48.782;9.252;2023-02-24T09:31:55;55.10;;;35.40;;
438;SDS011;206;48.782;9.252;2023-02-24T09:34:28;51.97;;;31.50;;
438;SDS011;206;48.782;9.252;2023-02-24T09:36:58;49.77;;;30.10;;
438;SDS011;206;48.782;9.252;2023-02-24T09:39:32;46.33;;;29.80;;
438;SDS011;206;48.782;9.252;2023-02-24T09:42:20;43.03;;;29.40;;
438;SDS011;206;48.782;9.252;2023-02-24T09:44:56;46.87;;;29.93;;
438;SDS011;206;48.782;9.252;2023-02-24T09:47:43;46.33;;;27.50;;
438;SDS011;206;48.782;9.252;2023-02-24T09:52:55;42.23;;;26.57;;
438;SDS011;206;48.782;9.252;2023-02-24T10:04:19;31.27;;;21.80;;
438;SDS011;206;48.782;9.252;2023-02-24T10:07:13;45.17;;;25.23;;
438;SDS011;206;48.782;9.252;2023-02-24T10:10:04;32.93;;;21.50;;
438;SDS011;206;48.782;9.252;2023-02-24T10:12:50;42.93;;;23.47;;
438;SDS011;206;48.782;9.252;2023-02-24T10:15:20;33.63;;;23.00;;
438;SDS011;206;48.782;9.252;2023-02-24T10:18:17;37.20;;;23.60;;
438;SDS011;206;48.782;9.252;2023-02-24T10:20:51;31.60;;;22.83;;
438;SDS011;206;48.782;9.252;2023-02-24T10:23:21;40.23;;;24.10;;
438;SDS011;206;48.782;9.252;2023-02-24T10:26:22;39.63;;;22.47;;
438;SDS011;206;48.782;9.252;2023-02-24T10:29:07;38.50;;;21.50;;
438;SDS011;206;48.782;9.252;2023-02-24T10:31:46;31.17;;;20.63;;
438;SDS011;206;48.782;9.252;2023-02-24T10:34:22;32.10;;;19.03;;
438;SDS011;206;48.782;9.252;2023-02-24T10:36:59;29.17;;;18.67;;
438;SDS011;206;48.782;9.252;2023-02-24T10:39:34;22.70;;;15.37;;
438;SDS011;206;48.782;9.252;2023-02-24T10:42:00;26.00;;;16.27;;
438;SDS011;206;48.782;9.252;2023-02-24T10:44:44;25.13;;;15.23;;
438;SDS011;206;48.782;9.252;2023-02-24T10:47:26;28.47;;;14.27;;
438;SDS011;206;48.782;9.252;2023-02-24T10:49:57;22.57;;;13.50;;
438;SDS011;206;48.782;9.252;2023-02-24T10:52:25;29.20;;;12.93;;
438;SDS011;206;48.782;9.252;2023-02-24T10:58:03;26.00;;;14.73;;
438;SDS011;206;48.782;9.252;2023-02-24T11:00:40;24.80;;;13.20;;
438;SDS011;206;48.782;9.252;2023-02-24T11:03:46;27.53;;;16.40;;
438;SDS011;206;48.782;9.252;2023-02-24T11:06:26;23.80;;;14.57;;
438;SDS011;206;48.782;9.252;2023-02-24T11:09:05;30.73;;;17.40;;
438;SDS011;206;48.782;9.252;2023-02-24T11:11:57;35.03;;;18.67;;
438;SDS011;206;48.782;9.252;2023-02-24T11:14:52;34.87;;;18.60;;
438;SDS011;206;48.782;9.252;2023-02-24T11:17:45;34.00;;;18.90;;
438;SDS011;206;48.782;9.252;2023-02-24T11:22:57;33.63;;;19.17;;
438;SDS011;206;48.782;9.252;2023-02-24T11:25:41;42.10;;;23.27;;
438;SDS011;206;48.782;9.252;2023-02-24T11:36:33;36.23;;;20.90;;
438;SDS011;206;48.782;9.252;2023-02-24T11:42:14;42.70;;;25.13;;
438;SDS011;206;48.782;9.252;2023-02-24T11:47:31;40.60;;;20.63;;
438;SDS011;206;48.782;9.252;2023-02-24T11:50:48;40.47;;;21.60;;
438;SDS011;206;48.782;9.252;2023-02-24T11:52:54;37.40;;;22.00;;
438;SDS011;206;48.782;9.252;2023-02-24T11:55:28;33.27;;;19.13;;
438;SDS011;206;48.782;9.252;2023-02-24T11:58:05;40.00;;;20.23;;
438;SDS011;206;48.782;9.252;2023-02-24T12:00:48;35.37;;;20.27;;
438;SDS011;206;48.782;9.252;2023-02-24T12:03:34;33.80;;;19.33;;
438;SDS011;206;48.782;9.252;2023-02-24T12:06:08;32.17;;;20.73;;
438;SDS011;206;48.782;9.252;2023-02-24T12:09:17;40.67;;;19.88;;
438;SDS011;206;48.782;9.252;2023-02-24T12:17:09;28.57;;;17.87;;
438;SDS011;206;48.782;9.252;2023-02-24T12:22:43;29.70;;;15.90;;
438;SDS011;206;48.782;9.252;2023-02-24T12:25:32;29.63;;;18.80;;
438;SDS011;206;48.782;9.252;2023-02-24T12:28:17;29.63;;;17.07;;
438;SDS011;206;48.782;9.252;2023-02-24T12:31:05;28.17;;;17.90;;
438;SDS011;206;48.782;9.252;2023-02-24T12:36:22;32.53;;;17.13;;
438;SDS011;206;48.782;9.252;2023-02-24T12:39:11;27.90;;;16.50;;
438;SDS011;206;48.782;9.252;2023-02-24T12:47:08;32.80;;;16.77;;
438;SDS011;206;48.782;9.252;2023-02-24T12:52:41;29.60;;;17.00;;
438;SDS011;206;48.782;9.252;2023-02-24T12:58:06;28.83;;;17.03;;
438;SDS011;206;48.782;9.252;2023-02-24T13:00:48;35.40;;;17.27;;
438;SDS011;206;48.782;9.252;2023-02-24T13:03:47;29.83;;;17.70;;
438;SDS011;206;48.782;9.252;2023-02-24T13:09:05;31.80;;;17.37;;
438;SDS011;206;48.782;9.252;2023-02-24T13:14:30;32.80;;;18.23;;
438;SDS011;206;48.782;9.252;2023-02-24T13:17:19;34.47;;;19.00;;
438;SDS011;206;48.782;9.252;2023-02-24T13:19:46;28.57;;;18.13;;
438;SDS011;206;48.782;9.252;2023-02-24T13:24:40;32.63;;;19.17;;
438;SDS011;206;48.782;9.252;2023-02-24T13:30:03;31.97;;;17.97;;
438;SDS011;206;48.782;9.252;2023-02-24T13:32:32;20.10;;;12.27;;
438;SDS011;206;48.782;9.252;2023-02-24T13:37:42;22.80;;;13.07;;
438;SDS011;206;48.782;9.252;2023-02-24T13:45:28;17.03;;;11.10;;
438;SDS011;206;48.782;9.252;2023-02-24T14:01:17;33.37;;;19.20;;
438;SDS011;206;48.782;9.252;2023-02-24T14:03:46;37.57;;;20.10;;
438;SDS011;206;48.782;9.252;2023-02-24T14:06:28;39.17;;;21.40;;
438;SDS011;206;48.782;9.252;2023-02-24T14:08:58;47.20;;;21.87;;
438;SDS011;206;48.782;9.252;2023-02-24T14:11:27;34.47;;;17.93;;
438;SDS011;206;48.782;9.252;2023-02-24T14:13:56;31.97;;;19.10;;
438;SDS011;206;48.782;9.252;2023-02-24T14:16:24;32.13;;;19.10;;
438;SDS011;206;48.782;9.252;2023-02-24T14:18:55;37.90;;;19.40;;
438;SDS011;206;48.782;9.252;2023-02-24T14:21:27;30.03;;;19.13;;
438;SDS011;206;48.782;9.252;2023-02-24T14:23:57;34.13;;;17.83;;
438;SDS011;206;48.782;9.252;2023-02-24T14:26:25;30.90;;;19.30;;
438;SDS011;206;48.782;9.252;2023-02-24T14:28:55;38.30;;;19.30;;
438;SDS011;206;48.782;9.252;2023-02-24T14:31:24;39.27;;;18.30;;
438;SDS011;206;48.782;9.252;2023-02-24T14:33:59;27.33;;;18.03;;
438;SDS011;206;48.782;9.252;2023-02-24T14:36:29;31.50;;;18.30;;
438;SDS011;206;48.782;9.252;2023-02-24T14:39:00;30.60;;;20.40;;
438;SDS011;206;48.782;9.252;2023-02-24T14:41:26;32.83;;;19.03;;
438;SDS011;206;48.782;9.252;2023-02-24T14:43:52;24.60;;;13.80;;
438;SDS011;206;48.782;9.252;2023-02-24T14:46:19;25.53;;;16.13;;
438;SDS011;206;48.782;9.252;2023-02-24T14:48:44;30.30;;;12.73;;
438;SDS011;206;48.782;9.252;2023-02-24T14:51:18;15.50;;;10.73;;
438;SDS011;206;48.782;9.252;2023-02-24T14:53:53;19.23;;;12.50;;
438;SDS011;206;48.782;9.252;2023-02-24T14:56:21;20.60;;;11.93;;
438;SDS011;206;48.782;9.252;2023-02-24T14:58:59;23.80;;;13.07;;
438;SDS011;206;48.782;9.252;2023-02-24T15:01:33;23.47;;;15.43;;
438;SDS011;206;48.782;9.252;2023-02-24T15:04:12;28.50;;;16.00;;
438;SDS011;206;48.782;9.252;2023-02-24T15:07:03;29.97;;;17.60;;
438;SDS011;206;48.782;9.252;2023-02-24T15:09:35;20.87;;;14.30;;
438;SDS011;206;48.782;9.252;2023-02-24T15:12:12;42.27;;;15.63;;
438;SDS011;206;48.782;9.252;2023-02-24T15:14:47;25.77;;;15.63;;
438;SDS011;206;48.782;9.252;2023-02-24T15:17:17;23.07;;;14.00;;
438;SDS011;206;48.782;9.252;2023-02-24T15:19:46;21.37;;;13.00;;
438;SDS011;206;48.782;9.252;2023-02-24T15:24:45;28.33;;;14.23;;
438;SDS011;206;48.782;9.252;2023-02-24T15:29:43;24.67;;;16.20;;
438;SDS011;206;48.782;9.252;2023-02-24T15:32:20;22.77;;;13.27;;
438;SDS011;206;48.782;9.252;2023-02-24T15:34:52;21.43;;;13.63;;
438;SDS011;206;48.782;9.252;2023-02-24T15:37:24;26.80;;;12.80;;
438;SDS011;206;48.782;9.252;2023-02-24T15:39:56;23.10;;;11.70;;
438;SDS011;206;48.782;9.252;2023-02-24T15:42:33;18.47;;;13.43;;
438;SDS011;206;48.782;9.252;2023-02-24T15:45:00;19.73;;;12.03;;
438;SDS011;206;48.782;9.252;2023-02-24T15:47:28;19.37;;;12.80;;
438;SDS011;206;48.782;9.252;2023-02-24T15:50:04;18.27;;;12.43;;
438;SDS011;206;48.782;9.252;2023-02-24T15:52:29;15.77;;;10.57;;
438;SDS011;206;48.782;9.252;2023-02-24T15:54:55;26.57;;;11.53;;
438;SDS011;206;48.782;9.252;2023-02-24T15:57:23;23.43;;;11.73;;
438;SDS011;206;48.782;9.252;2023-02-24T15:59:49;22.33;;;13.20;;
438;SDS011;206;48.782;9.252;2023-02-24T16:02:17;21.00;;;12.47;;
438;SDS011;206;48.782;9.252;2023-02-24T16:04:45;20.23;;;13.50;;
438;SDS011;206;48.782;9.252;2023-02-24T16:07:15;18.60;;;12.07;;
438;SDS011;206;48.782;9.252;2023-02-24T16:09:46;21.70;;;13.20;;
438;SDS011;206;48.782;9.252;2023-02-24T16:12:15;22.33;;;11.70;;
438;SDS011;206;48.782;9.252;2023-02-24T16:14:48;22.93;;;12.53;;
438;SDS011;206;48.782;9.252;2023-02-24T16:17:29;20.10;;;11.90;;
438;SDS011;206;48.782;9.252;2023-02-24T16:20:06;27.50;;;12.33;;
438;SDS011;206;48.782;9.252;2023-02-24T16:22:39;21.53;;;13.00;;
438;SDS011;206;48.782;9.252;2023-02-24T16:25:05;24.53;;;11.37;;
438;SDS011;206;48.782;9.252;2023-02-24T16:27:31;19.20;;;12.83;;
438;SDS011;206;48.782;9.252;2023-02-24T16:29:58;16.83;;;11.30;;
438;SDS011;206;48.782;9.252;2023-02-24T16:32:24;15.87;;;11.60;;
438;SDS011;206;48.782;9.252;2023-02-24T16:34:52;19.57;;;11.70;;
438;SDS011;206;48.782;9.252;2023-02-24T16:37:19;24.47;;;11.37;;
438;SDS011;206;48.782;9.252;2023-02-24T16:39:46;25.30;;;11.50;;
438;SDS011;206;48.782;9.252;2023-02-24T16:42:13;20.63;;;12.37;;
438;SDS011;206;48.782;9.252;2023-02-24T16:44:40;18.30;;;11.77;;
438;SDS011;206;48.782;9.252;2023-02-24T16:47:06;25.33;;;13.83;;
438;SDS011;206;48.782;9.252;2023-02-24T16:49:32;27.20;;;14.67;;
438;SDS011;206;48.782;9.252;2023-02-24T16:51:58;33.73;;;13.00;;
438;SDS011;206;48.782;9.252;2023-02-24T16:54:23;32.03;;;11.83;;
438;SDS011;206;48.782;9.252;2023-02-24T16:56:53;28.93;;;12.40;;
438;SDS011;206;48.782;9.252;2023-02-24T16:59:20;16.10;;;10.87;;
438;SDS011;206;48.782;9.252;2023-02-24T17:01:45;18.17;;;11.57;;
438;SDS011;206;48.782;9.252;2023-02-24T17:04:11;14.47;;;9.37;;
438;SDS011;206;48.782;9.252;2023-02-24T17:06:38;18.37;;;10.67;;
438;SDS011;206;48.782;9.252;2023-02-24T17:09:04;18.13;;;9.60;;
438;SDS011;206;48.782;9.252;2023-02-24T17:11:30;17.57;;;9.70;;
438;SDS011;206;48.782;9.252;2023-02-24T17:13:56;19.90;;;11.23;;
438;SDS011;206;48.782;9.252;2023-02-24T17:16:22;16.40;;;10.20;;
438;SDS011;206;48.782;9.252;2023-02-24T17:18:48;21.67;;;13.60;;
438;SDS011;206;48.782;9.252;2023-02-24T17:21:14;13.80;;;9.97;;
438;SDS011;206;48.782;9.252;2023-02-24T17:23:40;17.33;;;10.63;;
438;SDS011;206;48.782;9.252;2023-02-24T17:26:06;19.37;;;11.33;;
438;SDS011;206;48.782;9.252;2023-02-24T17:28:34;18.30;;;12.03;;
438;SDS011;206;48.782;9.252;2023-02-24T17:31:00;15.30;;;11.60;;
438;SDS011;206;48.782;9.252;2023-02-24T17:33:25;18.53;;;10.83;;
438;SDS011;206;48.782;9.252;2023-02-24T17:35:51;17.87;;;12.27;;
438;SDS011;206;48.782;9.252;2023-02-24T17:38:17;17.33;;;14.70;;
438;SDS011;206;48.782;9.252;2023-02-24T17:40:45;17.17;;;12.37;;
438;SDS011;206;48.782;9.252;2023-02-24T17:43:11;25.77;;;13.43;;
438;SDS011;206;48.782;9.252;2023-02-24T17:45:39;18.73;;;13.60;;
438;SDS011;206;48.782;9.252;2023-02-24T17:48:08;25.63;;;11.47;;
438;SDS011;206;48.782;9.252;2023-02-24T17:50:35;15.67;;;11.00;;
438;SDS011;206;48.782;9.252;2023-02-24T17:53:01;20.13;;;13.70;;
438;SDS011;206;48.782;9.252;2023-02-24T17:55:26;19.80;;;11.87;;
438;SDS011;206;48.782;9.252;2023-02-24T17:57:52;13.67;;;9.67;;
438;SDS011;206;48.782;9.252;2023-02-24T18:00:17;21.07;;;11.47;;
438;SDS011;206;48.782;9.252;2023-02-24T18:02:43;14.30;;;10.47;;
438;SDS011;206;48.782;9.252;2023-02-24T18:05:09;12.90;;;11.47;;
438;SDS011;206;48.782;9.252;2023-02-24T18:07:35;12.53;;;9.13;;